Time,TemperatureF,DewpointF,PressureIn,WindDirection,WindDirectionDegrees,WindSpeedMPH,WindSpeedGustMPH,Humidity,HourlyPrecipIn,Conditions,Clouds,dailyrainin,SoftwareType,DateUTC
2013-05-14 00:01:00,28.0,25.7,30.20,WNW,299,0.0,0.0,91,0.00,,---,0.00,VWS V13.01,2013-05-14 04:01:00,
2013-05-14 00:02:00,28.0,25.7,30.20,WNW,299,0.0,0.0,91,0.00,,---,0.00,VWS V13.01,2013-05-14 04:02:00,
2013-05-14 00:07:00,27.8,25.8,30.20,WNW,300,0.0,0.0,92,0.00,,---,0.00,VWS V13.01,2013-05-14 04:07:00,
2013-05-14 00:11:00,27.7,25.7,30.21,WNW,300,0.0,0.0,92,0.00,,---,0.00,VWS V13.01,2013-05-14 04:11:00,
2013-05-14 00:16:00,27.7,25.7,30.21,WNW,300,0.0,0.0,92,0.00,,---,0.00,VWS V13.01,2013-05-14 04:16:00,
2013-05-14 00:22:00,27.6,25.6,30.21,WNW,300,0.0,0.0,92,0.00,,---,0.00,VWS V13.01,2013-05-14 04:22:00,
2013-05-14 00:27:00,27.6,25.6,30.21,WNW,299,0.0,0.0,92,0.00,,---,0.00,VWS V13.01,2013-05-14 04:27:00,
2013-05-14 00:32:00,27.6,25.6,30.22,WNW,300,0.0,0.0,92,0.00,,---,0.00,VWS V13.01,2013-05-14 04:32:00,
2013-05-14 00:37:00,27.5,25.5,30.22,WNW,299,0.0,0.0,92,0.00,,---,0.00,VWS V13.01,2013-05-14 04:37:00,
2013-05-14 00:42:00,27.4,25.4,30.22,WNW,300,0.0,0.0,92,0.00,,---,0.00,VWS V13.01,2013-05-14 04:42:00,
2013-05-14 00:47:00,27.3,25.5,30.22,WNW,299,0.0,0.0,93,0.00,,---,0.00,VWS V13.01,2013-05-14 04:47:00,
2013-05-14 00:52:00,27.2,25.5,30.22,WNW,300,0.0,0.0,93,0.00,,---,0.00,VWS V13.01,2013-05-14 04:52:00,
2013-05-14 00:57:00,27.2,25.5,30.22,WNW,300,0.0,1.0,93,0.00,,---,0.00,VWS V13.01,2013-05-14 04:57:00,
2013-05-14 01:02:00,27.2,25.5,30.22,WNW,299,0.0,0.0,93,0.00,,---,0.00,VWS V13.01,2013-05-14 05:02:00,
2013-05-14 01:07:00,27.1,25.4,30.22,WNW,300,0.0,0.0,93,0.00,,---,0.00,VWS V13.01,2013-05-14 05:07:00,
2013-05-14 01:12:00,27.0,25.2,30.22,WNW,299,0.0,0.0,93,0.00,,---,0.00,VWS V13.01,2013-05-14 05:12:00,
2013-05-14 01:17:00,27.0,25.2,30.22,WNW,299,0.0,0.0,93,0.00,,---,0.00,VWS V13.01,2013-05-14 05:17:00,
2013-05-14 01:22:00,27.0,25.2,30.22,WNW,300,0.0,0.0,93,0.00,,---,0.00,VWS V13.01,2013-05-14 05:22:00,
2013-05-14 01:27:00,26.9,25.1,30.22,WNW,299,0.0,0.0,93,0.00,,---,0.00,VWS V13.01,2013-05-14 05:27:00,
2013-05-14 01:32:00,26.7,25.0,30.22,WNW,299,0.0,0.0,93,0.00,,---,0.00,VWS V13.01,2013-05-14 05:32:00,
2013-05-14 01:37:00,26.6,24.9,30.22,WNW,300,0.0,0.0,93,0.00,,---,0.00,VWS V13.01,2013-05-14 05:37:00,
2013-05-14 01:42:00,26.6,24.9,30.22,WNW,299,0.0,0.0,93,0.00,,---,0.00,VWS V13.01,2013-05-14 05:42:00,
2013-05-14 01:48:00,26.6,25.1,30.22,WNW,299,0.0,0.0,94,0.00,,---,0.00,VWS V13.01,2013-05-14 05:48:00,
2013-05-14 01:53:00,26.5,25.0,30.22,WNW,300,0.0,0.0,94,0.00,,---,0.00,VWS V13.01,2013-05-14 05:53:00,
2013-05-14 01:58:00,26.3,24.6,30.22,WNW,300,0.0,0.0,93,0.00,,---,0.00,VWS V13.01,2013-05-14 05:58:00,
2013-05-14 02:03:00,26.2,24.5,30.22,WNW,300,0.0,0.0,93,0.00,,---,0.00,VWS V13.01,2013-05-14 06:03:00,
2013-05-14 02:08:00,26.2,24.7,30.22,WNW,299,0.0,0.0,94,0.00,,---,0.00,VWS V13.01,2013-05-14 06:08:00,
2013-05-14 02:13:00,26.2,24.7,30.22,WNW,300,0.0,0.0,94,0.00,,---,0.00,VWS V13.01,2013-05-14 06:13:00,
2013-05-14 02:18:00,26.3,24.8,30.22,WNW,300,0.0,0.0,94,0.00,,---,0.00,VWS V13.01,2013-05-14 06:18:00,
2013-05-14 02:23:00,26.3,24.8,30.22,WNW,300,0.0,0.0,94,0.00,,---,0.00,VWS V13.01,2013-05-14 06:23:00,
2013-05-14 02:28:00,26.3,24.8,30.22,WNW,300,0.0,0.0,94,0.00,,---,0.00,VWS V13.01,2013-05-14 06:28:00,
2013-05-14 02:33:00,26.3,24.8,30.22,WNW,299,0.0,0.0,94,0.00,,---,0.00,VWS V13.01,2013-05-14 06:33:00,
2013-05-14 02:38:00,26.2,24.7,30.22,WNW,300,0.0,0.0,94,0.00,,---,0.00,VWS V13.01,2013-05-14 06:38:00,
2013-05-14 02:43:00,26.3,24.8,30.22,WNW,300,0.0,0.0,94,0.00,,---,0.00,VWS V13.01,2013-05-14 06:43:00,
2013-05-14 02:48:00,26.2,24.7,30.22,WNW,299,0.0,0.0,94,0.00,,---,0.00,VWS V13.01,2013-05-14 06:48:00,
2013-05-14 02:53:00,26.1,24.6,30.22,WNW,300,0.0,0.0,94,0.00,,---,0.00,VWS V13.01,2013-05-14 06:53:00,
2013-05-14 02:58:00,26.1,24.6,30.22,WNW,299,0.0,0.0,94,0.00,,---,0.00,VWS V13.01,2013-05-14 06:58:00,
2013-05-14 03:03:00,26.1,24.6,30.22,WNW,300,0.0,0.0,94,0.00,,---,0.00,VWS V13.01,2013-05-14 07:03:00,
2013-05-14 03:08:00,25.9,24.4,30.22,WNW,300,0.0,0.0,94,0.00,,---,0.00,VWS V13.01,2013-05-14 07:08:00,
2013-05-14 03:13:00,25.8,24.3,30.22,WNW,299,0.0,0.0,94,0.00,,---,0.00,VWS V13.01,2013-05-14 07:13:00,
2013-05-14 03:19:00,25.7,24.2,30.22,WNW,300,0.0,0.0,94,0.00,,---,0.00,VWS V13.01,2013-05-14 07:19:00,
2013-05-14 03:24:00,25.6,24.1,30.22,WNW,299,0.0,0.0,94,0.00,,---,0.00,VWS V13.01,2013-05-14 07:24:00,
2013-05-14 03:29:00,25.7,24.2,30.21,WNW,300,0.0,1.0,94,0.00,,---,0.00,VWS V13.01,2013-05-14 07:29:00,
2013-05-14 03:34:00,25.3,23.8,30.21,WNW,300,0.0,0.0,94,0.00,,---,0.00,VWS V13.01,2013-05-14 07:34:00,
2013-05-14 03:39:00,25.2,23.7,30.22,WNW,300,0.0,0.0,94,0.00,,---,0.00,VWS V13.01,2013-05-14 07:39:00,
2013-05-14 03:44:00,25.4,23.9,30.21,WNW,299,0.0,0.0,94,0.00,,---,0.00,VWS V13.01,2013-05-14 07:44:00,
2013-05-14 03:49:00,25.6,24.4,30.21,WNW,300,0.0,0.0,95,0.00,,---,0.00,VWS V13.01,2013-05-14 07:49:00,
2013-05-14 03:54:00,26.0,24.8,30.21,WNW,300,0.0,1.0,95,0.00,,---,0.00,VWS V13.01,2013-05-14 07:54:00,
2013-05-14 03:59:00,26.2,25.0,30.21,WNW,300,0.0,1.0,95,0.00,,---,0.00,VWS V13.01,2013-05-14 07:59:00,
2013-05-14 04:04:00,26.5,25.3,30.22,WNW,299,0.0,0.0,95,0.00,,---,0.00,VWS V13.01,2013-05-14 08:04:00,
2013-05-14 04:09:00,26.5,25.3,30.21,WNW,300,0.0,0.0,95,0.00,,---,0.00,VWS V13.01,2013-05-14 08:09:00,
2013-05-14 04:14:00,26.6,25.4,30.22,WNW,300,0.0,0.0,95,0.00,,---,0.00,VWS V13.01,2013-05-14 08:14:00,
2013-05-14 04:19:00,26.7,25.5,30.22,WNW,300,0.0,0.0,95,0.00,,---,0.00,VWS V13.01,2013-05-14 08:19:00,
2013-05-14 04:24:00,26.7,25.5,30.22,WNW,300,0.0,0.0,95,0.00,,---,0.00,VWS V13.01,2013-05-14 08:24:00,
2013-05-14 04:29:00,26.8,25.6,30.22,WNW,300,0.0,0.0,95,0.00,,---,0.00,VWS V13.01,2013-05-14 08:29:00,
2013-05-14 04:35:00,26.8,25.6,30.22,WNW,300,0.0,0.0,95,0.00,,---,0.00,VWS V13.01,2013-05-14 08:35:00,
2013-05-14 04:40:00,26.9,25.7,30.21,WNW,299,0.0,0.0,95,0.00,,---,0.00,VWS V13.01,2013-05-14 08:40:00,
2013-05-14 04:45:00,26.9,25.7,30.22,WNW,300,0.0,0.0,95,0.00,,---,0.00,VWS V13.01,2013-05-14 08:45:00,
2013-05-14 04:50:00,26.9,25.7,30.22,WNW,299,0.0,0.0,95,0.00,,---,0.00,VWS V13.01,2013-05-14 08:50:00,
2013-05-14 04:55:00,26.8,25.6,30.21,WNW,299,0.0,0.0,95,0.00,,---,0.00,VWS V13.01,2013-05-14 08:55:00,
2013-05-14 05:00:00,26.8,25.6,30.21,WNW,300,0.0,0.0,95,0.00,,---,0.00,VWS V13.01,2013-05-14 09:00:00,
2013-05-14 05:05:00,26.9,25.7,30.21,WNW,299,0.0,0.0,95,0.00,,---,0.00,VWS V13.01,2013-05-14 09:05:00,
2013-05-14 05:10:00,27.0,25.8,30.21,WNW,300,0.0,0.0,95,0.00,,---,0.00,VWS V13.01,2013-05-14 09:10:00,
2013-05-14 05:15:00,27.1,25.9,30.21,WNW,300,0.0,0.0,95,0.00,,---,0.00,VWS V13.01,2013-05-14 09:15:00,
2013-05-14 05:20:00,27.1,25.9,30.21,WNW,300,0.0,0.0,95,0.00,,---,0.00,VWS V13.01,2013-05-14 09:20:00,
2013-05-14 05:25:00,27.2,26.0,30.21,WNW,300,0.0,0.0,95,0.00,,---,0.00,VWS V13.01,2013-05-14 09:25:00,
2013-05-14 05:30:00,27.2,26.0,30.20,WNW,300,0.0,0.0,95,0.00,,---,0.00,VWS V13.01,2013-05-14 09:30:00,
2013-05-14 05:35:00,27.2,26.0,30.20,WNW,300,0.0,0.0,95,0.00,,---,0.00,VWS V13.01,2013-05-14 09:35:00,
2013-05-14 05:40:00,27.3,26.1,30.21,WNW,300,0.0,0.0,95,0.00,,---,0.00,VWS V13.01,2013-05-14 09:40:00,
2013-05-14 05:45:00,27.3,26.1,30.21,WNW,299,0.0,0.0,95,0.00,,---,0.00,VWS V13.01,2013-05-14 09:45:00,
2013-05-14 05:50:00,27.4,26.2,30.21,WNW,300,0.0,0.0,95,0.00,,---,0.00,VWS V13.01,2013-05-14 09:50:00,
2013-05-14 05:56:00,27.5,26.3,30.22,WNW,300,0.0,0.0,95,0.00,,---,0.00,VWS V13.01,2013-05-14 09:56:00,
2013-05-14 06:01:00,27.6,26.4,30.22,WNW,299,0.0,0.0,95,0.00,,---,0.00,VWS V13.01,2013-05-14 10:01:00,
2013-05-14 06:06:00,27.6,26.4,30.23,WNW,300,0.0,0.0,95,0.00,,---,0.00,VWS V13.01,2013-05-14 10:06:00,
2013-05-14 06:11:00,27.6,26.4,30.23,WNW,299,0.0,1.0,95,0.00,,---,0.00,VWS V13.01,2013-05-14 10:11:00,
2013-05-14 06:16:00,27.7,26.5,30.23,WNW,299,0.0,1.0,95,0.00,,---,0.00,VWS V13.01,2013-05-14 10:16:00,
2013-05-14 06:21:00,27.6,26.4,30.23,WNW,300,0.0,1.0,95,0.00,,---,0.00,VWS V13.01,2013-05-14 10:21:00,
2013-05-14 06:26:00,27.6,26.4,30.23,WNW,299,0.0,1.0,95,0.00,,---,0.00,VWS V13.01,2013-05-14 10:26:00,
2013-05-14 06:31:00,27.6,26.4,30.24,WNW,300,0.0,0.0,95,0.00,,---,0.00,VWS V13.01,2013-05-14 10:31:00,
2013-05-14 06:36:00,27.7,26.5,30.24,WNW,300,0.0,0.0,95,0.00,,---,0.00,VWS V13.01,2013-05-14 10:36:00,
2013-05-14 06:41:00,27.8,26.6,30.24,WNW,299,0.0,0.0,95,0.00,,---,0.00,VWS V13.01,2013-05-14 10:41:00,
2013-05-14 06:46:00,27.9,26.7,30.24,WNW,300,0.0,0.0,95,0.00,,---,0.00,VWS V13.01,2013-05-14 10:46:00,
2013-05-14 06:51:00,27.9,26.7,30.24,WNW,299,0.0,0.0,95,0.00,,---,0.00,VWS V13.01,2013-05-14 10:51:00,
2013-05-14 06:57:00,28.0,26.8,30.24,WNW,300,0.0,0.0,95,0.00,,---,0.00,VWS V13.01,2013-05-14 10:57:00,
2013-05-14 07:02:00,27.9,26.7,30.25,WNW,299,0.0,0.0,95,0.00,,---,0.00,VWS V13.01,2013-05-14 11:02:00,
2013-05-14 07:07:00,27.9,26.7,30.25,WNW,300,0.0,0.0,95,0.00,,---,0.00,VWS V13.01,2013-05-14 11:07:00,
2013-05-14 07:12:00,28.0,26.8,30.25,WNW,300,0.0,0.0,95,0.00,,---,0.00,VWS V13.01,2013-05-14 11:12:00,
2013-05-14 07:17:00,28.2,27.0,30.25,WNW,299,0.0,0.0,95,0.00,,---,0.00,VWS V13.01,2013-05-14 11:17:00,
2013-05-14 07:22:00,28.5,27.2,30.25,WNW,300,0.0,0.0,95,0.00,,---,0.00,VWS V13.01,2013-05-14 11:22:00,
2013-05-14 07:27:00,28.9,27.6,30.25,WNW,299,0.0,0.0,95,0.00,,---,0.00,VWS V13.01,2013-05-14 11:27:00,
2013-05-14 07:32:00,29.7,28.5,30.25,WNW,300,0.0,0.0,95,0.00,,---,0.00,VWS V13.01,2013-05-14 11:32:00,
2013-05-14 07:37:00,30.0,28.7,30.25,WNW,300,0.0,1.0,95,0.00,,---,0.00,VWS V13.01,2013-05-14 11:37:00,
2013-05-14 07:42:00,30.4,29.1,30.25,WNW,300,0.0,1.0,95,0.00,,---,0.00,VWS V13.01,2013-05-14 11:42:00,
2013-05-14 07:47:00,31.0,29.7,30.25,WNW,299,0.0,1.0,95,0.00,,---,0.00,VWS V13.01,2013-05-14 11:47:00,
2013-05-14 07:52:00,31.0,29.5,30.25,WNW,299,0.0,1.0,94,0.00,,---,0.00,VWS V13.01,2013-05-14 11:52:00,
2013-05-14 07:58:00,31.2,29.7,30.25,WNW,300,0.0,1.0,94,0.00,,---,0.00,VWS V13.01,2013-05-14 11:58:00,
2013-05-14 08:03:00,31.6,30.1,30.24,WNW,300,0.0,1.0,94,0.00,,---,0.00,VWS V13.01,2013-05-14 12:03:00,
2013-05-14 08:08:00,31.7,29.9,30.25,WNW,300,0.0,1.0,93,0.00,,---,0.00,VWS V13.01,2013-05-14 12:08:00,
2013-05-14 08:13:00,32.2,30.4,30.24,WNW,299,0.0,1.0,93,0.00,,---,0.00,VWS V13.01,2013-05-14 12:13:00,
2013-05-14 08:18:00,32.6,30.8,30.25,WNW,300,0.0,1.0,93,0.00,,---,0.00,VWS V13.01,2013-05-14 12:18:00,
2013-05-14 08:23:00,33.0,31.2,30.25,WNW,300,0.0,1.0,93,0.00,,---,0.00,VWS V13.01,2013-05-14 12:23:00,
2013-05-14 08:29:00,33.4,31.3,30.24,WNW,299,0.0,1.0,92,0.00,,---,0.00,VWS V13.01,2013-05-14 12:29:00,
2013-05-14 08:34:00,33.9,31.8,30.25,WNW,300,0.0,0.0,92,0.00,,---,0.00,VWS V13.01,2013-05-14 12:34:00,
2013-05-14 08:39:00,34.4,32.0,30.25,WNW,300,0.0,0.0,91,0.00,,---,0.00,VWS V13.01,2013-05-14 12:39:00,
2013-05-14 08:44:00,35.2,32.8,30.24,WNW,300,0.0,1.0,91,0.00,,---,0.00,VWS V13.01,2013-05-14 12:44:00,
2013-05-14 08:49:00,35.8,33.2,30.24,WNW,299,0.0,1.0,90,0.00,,---,0.00,VWS V13.01,2013-05-14 12:49:00,
2013-05-14 08:54:00,36.1,33.2,30.24,WNW,299,0.0,1.0,89,0.00,,---,0.00,VWS V13.01,2013-05-14 12:54:00,
2013-05-14 08:59:00,36.4,33.5,30.24,WNW,300,0.0,1.0,89,0.00,,---,0.00,VWS V13.01,2013-05-14 12:59:00,
2013-05-14 09:04:00,36.6,33.4,30.23,WNW,299,0.0,0.0,88,0.00,,---,0.00,VWS V13.01,2013-05-14 13:04:00,
2013-05-14 09:09:00,36.8,33.3,30.23,WNW,300,0.0,0.0,87,0.00,,---,0.00,VWS V13.01,2013-05-14 13:09:00,
2013-05-14 09:14:00,37.3,34.1,30.24,WNW,300,0.0,1.0,88,0.00,,---,0.00,VWS V13.01,2013-05-14 13:14:00,
2013-05-14 09:19:00,38.2,34.7,30.24,WNW,300,0.0,1.0,87,0.00,,---,0.00,VWS V13.01,2013-05-14 13:19:00,
2013-05-14 09:24:00,39.1,35.0,30.23,WNW,300,0.0,1.0,85,0.00,,---,0.00,VWS V13.01,2013-05-14 13:24:00,
2013-05-14 09:29:00,40.3,35.6,30.22,WNW,300,0.0,1.0,83,0.00,,---,0.00,VWS V13.01,2013-05-14 13:29:00,
2013-05-14 09:34:00,41.2,35.5,30.22,WNW,300,0.0,0.0,80,0.00,,---,0.00,VWS V13.01,2013-05-14 13:34:00,
2013-05-14 09:40:00,42.2,36.2,30.22,WNW,299,0.0,1.0,79,0.00,,---,0.00,VWS V13.01,2013-05-14 13:40:00,
2013-05-14 09:45:00,43.3,36.3,30.22,WNW,299,0.0,1.0,76,0.00,,---,0.00,VWS V13.01,2013-05-14 13:45:00,
2013-05-14 09:50:00,43.9,34.8,30.21,WNW,300,0.0,1.0,70,0.00,,---,0.00,VWS V13.01,2013-05-14 13:50:00,
2013-05-14 09:55:00,44.4,33.0,30.21,West,276,11.0,11.0,64,0.00,,---,0.00,VWS V13.01,2013-05-14 13:55:00,
2013-05-14 10:00:00,44.5,30.7,30.21,West,269,5.0,7.0,58,0.00,,---,0.00,VWS V13.01,2013-05-14 14:00:00,
2013-05-14 10:05:00,44.8,32.6,30.20,West,271,11.0,14.0,62,0.00,,---,0.00,VWS V13.01,2013-05-14 14:05:00,
2013-05-14 10:10:00,45.0,31.5,30.20,WNW,288,7.0,14.0,59,0.00,,---,0.00,VWS V13.01,2013-05-14 14:10:00,
2013-05-14 10:15:00,45.0,31.1,30.19,WSW,248,7.0,14.0,58,0.00,,---,0.00,VWS V13.01,2013-05-14 14:15:00,
2013-05-14 10:20:00,45.2,29.1,30.19,WSW,246,0.0,14.0,53,0.00,,---,0.00,VWS V13.01,2013-05-14 14:20:00,
2013-05-14 10:25:00,45.7,28.6,30.19,SW,229,0.0,14.0,51,0.00,,---,0.00,VWS V13.01,2013-05-14 14:25:00,
2013-05-14 10:30:00,46.8,32.0,30.18,West,275,6.0,8.0,56,0.00,,---,0.00,VWS V13.01,2013-05-14 14:30:00,
2013-05-14 10:35:00,47.6,30.9,30.18,West,275,5.0,9.0,52,0.00,,---,0.00,VWS V13.01,2013-05-14 14:35:00,
2013-05-14 10:41:00,48.0,30.8,30.17,WSW,249,2.0,12.0,51,0.00,,---,0.00,VWS V13.01,2013-05-14 14:41:00,
2013-05-14 10:46:00,48.7,31.4,30.17,South,186,8.0,12.0,51,0.00,,---,0.00,VWS V13.01,2013-05-14 14:46:00,
2013-05-14 10:51:00,48.1,29.9,30.17,SW,223,1.0,12.0,49,0.00,,---,0.00,VWS V13.01,2013-05-14 14:51:00,
2013-05-14 10:56:00,48.0,32.6,30.18,NW,306,5.0,12.0,55,0.00,,---,0.00,VWS V13.01,2013-05-14 14:56:00,
2013-05-14 11:01:00,48.0,30.8,30.18,WSW,257,0.0,7.0,51,0.00,,---,0.00,VWS V13.01,2013-05-14 15:01:00,
2013-05-14 11:06:00,48.1,31.3,30.17,West,273,8.0,10.0,52,0.00,,---,0.00,VWS V13.01,2013-05-14 15:06:00,
2013-05-14 11:11:00,48.2,30.5,30.17,SSW,202,2.0,10.0,50,0.00,,---,0.00,VWS V13.01,2013-05-14 15:11:00,
2013-05-14 11:16:00,48.6,31.8,30.17,SW,225,4.0,10.0,52,0.00,,---,0.00,VWS V13.01,2013-05-14 15:16:00,
2013-05-14 11:21:00,49.0,31.7,30.16,West,275,7.0,10.0,51,0.00,,---,0.00,VWS V13.01,2013-05-14 15:21:00,
2013-05-14 11:26:00,49.2,29.9,30.17,WNW,298,8.0,11.0,47,0.00,,---,0.00,VWS V13.01,2013-05-14 15:26:00,
2013-05-14 11:31:00,49.3,32.0,30.16,SSE,147,4.0,7.0,51,0.00,,---,0.00,VWS V13.01,2013-05-14 15:31:00,
2013-05-14 11:36:00,49.7,31.3,30.17,SE,135,0.0,10.0,49,0.00,,---,0.00,VWS V13.01,2013-05-14 15:36:00,
2013-05-14 11:41:00,49.7,30.8,30.17,West,269,4.0,11.0,48,0.00,,---,0.00,VWS V13.01,2013-05-14 15:41:00,
2013-05-14 11:46:00,49.9,33.0,30.16,WNW,284,0.0,11.0,52,0.00,,---,0.00,VWS V13.01,2013-05-14 15:46:00,
2013-05-14 11:51:00,49.9,30.5,30.17,WNW,284,0.0,11.0,47,0.00,,---,0.00,VWS V13.01,2013-05-14 15:51:00,
2013-05-14 11:57:00,49.9,32.0,30.16,West,271,9.0,15.0,50,0.00,,---,0.00,VWS V13.01,2013-05-14 15:57:00,
2013-05-14 12:02:00,49.8,31.9,30.16,West,273,2.0,6.0,50,0.00,,---,0.00,VWS V13.01,2013-05-14 16:02:00,
2013-05-14 12:07:00,50.3,31.4,30.16,West,272,2.0,11.0,48,0.00,,---,0.00,VWS V13.01,2013-05-14 16:07:00,
2013-05-14 12:12:00,50.6,31.6,30.16,West,261,3.0,15.0,48,0.00,,---,0.00,VWS V13.01,2013-05-14 16:12:00,
2013-05-14 12:17:00,50.9,32.9,30.16,WNW,284,0.0,15.0,50,0.00,,---,0.00,VWS V13.01,2013-05-14 16:17:00,
2013-05-14 12:22:00,51.4,32.9,30.16,WSW,251,6.0,15.0,49,0.00,,---,0.00,VWS V13.01,2013-05-14 16:22:00,
2013-05-14 12:27:00,51.7,33.2,30.16,West,272,2.0,15.0,49,0.00,,---,0.00,VWS V13.01,2013-05-14 16:27:00,
2013-05-14 12:32:00,51.9,31.2,30.15,West,263,12.0,18.0,45,0.00,,---,0.00,VWS V13.01,2013-05-14 16:32:00,
2013-05-14 12:37:00,51.2,33.2,30.15,West,277,7.0,18.0,50,0.00,,---,0.00,VWS V13.01,2013-05-14 16:37:00,
2013-05-14 12:42:00,51.1,33.1,30.15,SW,221,0.0,18.0,50,0.00,,---,0.00,VWS V13.01,2013-05-14 16:42:00,
2013-05-14 12:48:00,51.5,34.0,30.15,West,268,1.0,18.0,51,0.00,,---,0.00,VWS V13.01,2013-05-14 16:48:00,
2013-05-14 12:53:00,51.9,35.3,30.14,West,277,7.0,18.0,53,0.00,,---,0.00,VWS V13.01,2013-05-14 16:53:00,
2013-05-14 12:58:00,51.7,35.1,30.15,West,272,7.0,18.0,53,0.00,,---,0.00,VWS V13.01,2013-05-14 16:58:00,
2013-05-14 13:03:00,51.3,32.8,30.15,SSW,192,5.0,16.0,49,0.00,,---,0.00,VWS V13.01,2013-05-14 17:03:00,
2013-05-14 13:08:00,51.0,35.0,30.14,NW,307,10.0,16.0,54,0.00,,---,0.00,VWS V13.01,2013-05-14 17:08:00,
2013-05-14 13:13:00,50.5,35.4,30.14,West,273,15.0,16.0,56,0.00,,---,0.00,VWS V13.01,2013-05-14 17:13:00,
2013-05-14 13:18:00,50.1,35.0,30.14,West,273,10.0,16.0,56,0.00,,---,0.00,VWS V13.01,2013-05-14 17:18:00,
2013-05-14 13:23:00,49.8,34.8,30.15,WSW,248,12.0,16.0,56,0.00,,---,0.00,VWS V13.01,2013-05-14 17:23:00,
2013-05-14 13:28:00,49.3,35.2,30.15,West,265,11.0,16.0,58,0.00,,---,0.00,VWS V13.01,2013-05-14 17:28:00,
2013-05-14 13:33:00,48.6,37.8,30.15,West,272,11.0,16.0,66,0.00,,---,0.00,VWS V13.01,2013-05-14 17:33:00,
2013-05-14 13:38:00,48.0,36.0,30.16,West,261,10.0,18.0,63,0.00,,---,0.00,VWS V13.01,2013-05-14 17:38:00,
2013-05-14 13:44:00,47.3,36.2,30.15,WSW,256,7.0,18.0,65,0.00,,---,0.00,VWS V13.01,2013-05-14 17:44:00,
2013-05-14 13:49:00,47.2,37.2,30.16,West,271,9.0,18.0,68,0.00,,---,0.00,VWS V13.01,2013-05-14 17:49:00,
2013-05-14 13:54:00,47.3,36.5,30.15,West,271,6.0,18.0,66,0.00,,---,0.00,VWS V13.01,2013-05-14 17:54:00,
2013-05-14 13:59:00,47.4,36.2,30.15,West,270,5.0,18.0,65,0.00,,---,0.00,VWS V13.01,2013-05-14 17:59:00,
2013-05-14 14:04:00,47.5,36.7,30.15,West,267,5.0,10.0,66,0.00,,---,0.00,VWS V13.01,2013-05-14 18:04:00,
2013-05-14 14:09:00,47.7,36.9,30.15,West,272,7.0,11.0,66,0.00,,---,0.00,VWS V13.01,2013-05-14 18:09:00,
2013-05-14 14:14:00,47.6,36.8,30.15,West,270,7.0,11.0,66,0.00,,---,0.00,VWS V13.01,2013-05-14 18:14:00,
2013-05-14 14:19:00,47.6,36.0,30.15,West,269,5.0,11.0,64,0.00,,---,0.00,VWS V13.01,2013-05-14 18:19:00,
2013-05-14 14:24:00,47.6,36.4,30.14,West,270,4.0,11.0,65,0.00,,---,0.00,VWS V13.01,2013-05-14 18:24:00,
2013-05-14 14:29:00,47.6,37.6,30.14,West,273,4.0,11.0,68,0.00,,---,0.00,VWS V13.01,2013-05-14 18:29:00,
2013-05-14 14:34:00,47.6,37.6,30.14,West,273,7.0,7.0,68,0.00,,---,0.00,VWS V13.01,2013-05-14 18:34:00,
2013-05-14 14:39:00,47.4,37.8,30.13,West,273,6.0,11.0,69,0.00,,---,0.00,VWS V13.01,2013-05-14 18:39:00,
2013-05-14 14:44:00,47.2,37.6,30.13,West,264,2.0,13.0,69,0.00,,---,0.00,VWS V13.01,2013-05-14 18:44:00,
2013-05-14 14:49:00,47.1,37.5,30.13,West,264,5.0,13.0,69,0.00,,---,0.00,VWS V13.01,2013-05-14 18:49:00,
2013-05-14 14:54:00,47.1,37.5,30.12,West,265,5.0,13.0,69,0.00,,---,0.00,VWS V13.01,2013-05-14 18:54:00,
2013-05-14 14:59:00,47.3,37.3,30.12,West,264,2.0,13.0,68,0.00,,---,0.00,VWS V13.01,2013-05-14 18:59:00,
2013-05-14 15:04:00,47.6,37.2,30.11,West,265,0.0,4.0,67,0.00,,---,0.00,VWS V13.01,2013-05-14 19:04:00,
2013-05-14 15:10:00,47.9,37.5,30.11,West,265,0.0,4.0,67,0.00,,---,0.00,VWS V13.01,2013-05-14 19:10:00,
2013-05-14 15:15:00,47.9,37.9,30.10,East,81,4.0,7.0,68,0.00,,---,0.00,VWS V13.01,2013-05-14 19:15:00,
2013-05-14 15:20:00,47.9,38.6,30.10,ESE,103,4.0,7.0,70,0.00,,---,0.00,VWS V13.01,2013-05-14 19:20:00,
2013-05-14 15:25:00,48.0,39.4,30.09,East,101,0.0,7.0,72,0.00,,---,0.00,VWS V13.01,2013-05-14 19:25:00,
2013-05-14 15:30:00,48.1,38.0,30.08,ESE,121,0.0,8.0,68,0.00,,---,0.00,VWS V13.01,2013-05-14 19:30:00,
2013-05-14 15:35:00,48.2,37.8,30.08,East,83,1.0,12.0,67,0.00,,---,0.00,VWS V13.01,2013-05-14 19:35:00,
2013-05-14 15:40:00,48.5,38.1,30.07,East,86,4.0,12.0,67,0.00,,---,0.00,VWS V13.01,2013-05-14 19:40:00,
2013-05-14 15:45:00,48.9,39.2,30.07,East,84,6.0,12.0,69,0.00,,---,0.00,VWS V13.01,2013-05-14 19:45:00,
2013-05-14 15:50:00,49.2,38.3,30.06,East,79,0.0,12.0,66,0.00,,---,0.00,VWS V13.01,2013-05-14 19:50:00,
2013-05-14 15:55:00,49.8,40.4,30.06,SE,134,9.0,12.0,70,0.00,,---,0.00,VWS V13.01,2013-05-14 19:55:00,
2013-05-14 16:00:00,50.2,40.1,30.06,East,88,5.0,5.0,68,0.00,,---,0.00,VWS V13.01,2013-05-14 20:00:00,
2013-05-14 16:05:00,50.0,38.3,30.06,South,190,0.0,9.0,64,0.00,,---,0.00,VWS V13.01,2013-05-14 20:05:00,
2013-05-14 16:10:00,50.0,37.5,30.05,SE,141,0.0,10.0,62,0.00,,---,0.00,VWS V13.01,2013-05-14 20:10:00,
2013-05-14 16:15:00,49.9,37.4,30.05,NW,304,0.0,10.0,62,0.00,,---,0.00,VWS V13.01,2013-05-14 20:15:00,
2013-05-14 16:20:00,49.8,37.3,30.05,West,259,7.0,12.0,62,0.00,,---,0.00,VWS V13.01,2013-05-14 20:20:00,
2013-05-14 16:25:00,49.6,37.1,30.05,WSW,238,0.0,13.0,62,0.00,,---,0.00,VWS V13.01,2013-05-14 20:25:00,
2013-05-14 16:31:00,49.6,37.1,30.05,South,173,2.0,5.0,62,0.00,,---,0.00,VWS V13.01,2013-05-14 20:31:00,
2013-05-14 16:36:00,49.4,36.5,30.04,SW,223,11.0,14.0,61,0.00,,---,0.00,VWS V13.01,2013-05-14 20:36:00,
2013-05-14 16:41:00,49.3,36.8,30.04,ESE,108,0.0,14.0,62,0.00,,---,0.00,VWS V13.01,2013-05-14 20:41:00,
2013-05-14 16:46:00,49.2,37.6,30.04,South,187,0.0,14.0,64,0.00,,---,0.00,VWS V13.01,2013-05-14 20:46:00,
2013-05-14 16:51:00,49.1,36.7,30.04,ESE,110,0.0,14.0,62,0.00,,---,0.00,VWS V13.01,2013-05-14 20:51:00,
2013-05-14 16:56:00,49.1,37.1,30.03,ESE,112,0.0,14.0,63,0.00,,---,0.00,VWS V13.01,2013-05-14 20:56:00,
2013-05-14 17:01:00,49.0,37.0,30.03,SSE,162,1.0,1.0,63,0.00,,---,0.00,VWS V13.01,2013-05-14 21:01:00,
2013-05-14 17:06:00,49.0,37.8,30.03,SSE,152,0.0,3.0,65,0.00,,---,0.00,VWS V13.01,2013-05-14 21:06:00,
2013-05-14 17:11:00,49.0,37.4,30.03,East,84,0.0,4.0,64,0.00,,---,0.00,VWS V13.01,2013-05-14 21:11:00,
2013-05-14 17:16:00,49.2,39.1,30.03,East,83,0.0,4.0,68,0.00,,---,0.00,VWS V13.01,2013-05-14 21:16:00,
2013-05-14 17:21:00,49.2,37.6,30.03,East,83,0.0,4.0,64,0.00,,---,0.00,VWS V13.01,2013-05-14 21:21:00,
2013-05-14 17:26:00,49.2,38.3,30.02,ENE,76,0.0,4.0,66,0.00,,---,0.00,VWS V13.01,2013-05-14 21:26:00,
2013-05-14 17:31:00,49.0,38.2,30.02,ESE,103,0.0,0.0,66,0.00,,---,0.00,VWS V13.01,2013-05-14 21:31:00,
2013-05-14 17:36:00,48.8,38.0,30.02,ESE,104,0.0,1.0,66,0.00,,---,0.00,VWS V13.01,2013-05-14 21:36:00,
2013-05-14 17:41:00,48.8,38.0,30.01,NW,306,0.0,6.0,66,0.00,,---,0.00,VWS V13.01,2013-05-14 21:41:00,
2013-05-14 17:46:00,48.7,38.6,30.01,NW,306,0.0,6.0,68,0.00,,---,0.00,VWS V13.01,2013-05-14 21:46:00,
2013-05-14 17:52:00,48.7,38.2,30.01,NW,319,1.0,6.0,67,0.00,,---,0.00,VWS V13.01,2013-05-14 21:52:00,
2013-05-14 17:57:00,48.7,39.0,30.01,NW,319,0.0,6.0,69,0.00,,---,0.00,VWS V13.01,2013-05-14 21:57:00,
2013-05-14 18:02:00,48.6,38.5,30.01,NW,319,0.0,2.0,68,0.00,,---,0.00,VWS V13.01,2013-05-14 22:02:00,
2013-05-14 18:07:00,48.4,38.3,30.01,NW,317,5.0,6.0,68,0.00,,---,0.00,VWS V13.01,2013-05-14 22:07:00,
2013-05-14 18:12:00,48.1,38.4,30.01,NW,316,0.0,6.0,69,0.00,,---,0.00,VWS V13.01,2013-05-14 22:12:00,
2013-05-14 18:17:00,47.7,39.5,30.01,NW,315,0.0,6.0,73,0.00,,---,0.00,VWS V13.01,2013-05-14 22:17:00,
2013-05-14 18:22:00,47.3,40.8,30.01,NW,317,0.0,6.0,78,0.00,,---,0.00,VWS V13.01,2013-05-14 22:22:00,
2013-05-14 18:27:00,46.5,41.6,30.01,NW,317,0.0,6.0,83,0.01,,---,0.01,VWS V13.01,2013-05-14 22:27:00,
2013-05-14 18:32:00,45.8,41.9,30.01,NW,317,0.0,0.0,86,0.01,,---,0.01,VWS V13.01,2013-05-14 22:32:00,
2013-05-14 18:37:00,45.3,42.0,30.00,NW,317,0.0,0.0,88,0.01,,---,0.01,VWS V13.01,2013-05-14 22:37:00,
2013-05-14 18:42:00,45.0,42.0,30.00,NW,317,0.0,0.0,89,0.02,,---,0.02,VWS V13.01,2013-05-14 22:42:00,
2013-05-14 18:47:00,44.7,42.0,30.00,NW,317,0.0,0.0,90,0.02,,---,0.02,VWS V13.01,2013-05-14 22:47:00,
2013-05-14 18:52:00,44.6,42.1,30.01,NW,317,0.0,0.0,91,0.02,,---,0.02,VWS V13.01,2013-05-14 22:52:00,
2013-05-14 18:57:00,44.3,41.8,30.00,NW,317,0.0,1.0,91,0.03,,---,0.03,VWS V13.01,2013-05-14 22:57:00,
2013-05-14 19:02:00,44.1,41.7,30.01,NW,317,0.0,0.0,91,0.04,,---,0.04,VWS V13.01,2013-05-14 23:02:00,
2013-05-14 19:07:00,43.8,41.6,30.01,NW,317,0.0,0.0,92,0.06,,---,0.06,VWS V13.01,2013-05-14 23:07:00,
2013-05-14 19:13:00,43.8,41.6,30.02,NW,317,0.0,0.0,92,0.07,,---,0.07,VWS V13.01,2013-05-14 23:13:00,
2013-05-14 19:18:00,43.8,41.9,30.02,NW,317,0.0,0.0,93,0.09,,---,0.09,VWS V13.01,2013-05-14 23:18:00,
2013-05-14 19:23:00,43.7,41.8,30.02,NW,317,0.0,0.0,93,0.09,,---,0.09,VWS V13.01,2013-05-14 23:23:00,
2013-05-14 19:28:00,43.7,41.8,30.02,NW,317,0.0,0.0,93,0.10,,---,0.10,VWS V13.01,2013-05-14 23:28:00,
2013-05-14 19:33:00,43.6,41.7,30.02,NW,317,0.0,0.0,93,0.10,,---,0.11,VWS V13.01,2013-05-14 23:33:00,
2013-05-14 19:38:00,43.4,41.8,30.02,NW,317,0.0,0.0,94,0.12,,---,0.13,VWS V13.01,2013-05-14 23:38:00,
2013-05-14 19:43:00,43.3,41.7,30.03,NW,317,0.0,1.0,94,0.12,,---,0.13,VWS V13.01,2013-05-14 23:43:00,
2013-05-14 19:48:00,43.2,41.6,30.02,NW,317,0.0,1.0,94,0.13,,---,0.14,VWS V13.01,2013-05-14 23:48:00,
2013-05-14 19:53:00,43.1,41.5,30.03,NW,317,0.0,1.0,94,0.13,,---,0.14,VWS V13.01,2013-05-14 23:53:00,
2013-05-14 19:58:00,43.2,41.6,30.03,NW,317,0.0,1.0,94,0.13,,---,0.15,VWS V13.01,2013-05-14 23:58:00,
2013-05-14 20:03:00,43.1,41.8,30.02,NW,317,0.0,1.0,95,0.12,,---,0.15,VWS V13.01,2013-05-15 00:03:00,
2013-05-14 20:08:00,43.1,41.8,30.03,NW,317,0.0,1.0,95,0.12,,---,0.15,VWS V13.01,2013-05-15 00:08:00,
2013-05-14 20:13:00,43.3,42.0,30.03,NW,319,0.0,1.0,95,0.12,,---,0.15,VWS V13.01,2013-05-15 00:13:00,
2013-05-14 20:18:00,43.3,42.0,30.02,NW,320,0.0,1.0,95,0.12,,---,0.15,VWS V13.01,2013-05-15 00:18:00,
2013-05-14 20:23:00,43.1,41.8,30.02,NNW,330,0.0,1.0,95,0.12,,---,0.15,VWS V13.01,2013-05-15 00:23:00,
2013-05-14 20:29:00,43.2,41.9,30.02,NNW,332,0.0,1.0,95,0.12,,---,0.15,VWS V13.01,2013-05-15 00:29:00,
2013-05-14 20:34:00,43.2,41.9,30.02,NNW,332,0.0,0.0,95,0.05,,---,0.15,VWS V13.01,2013-05-15 00:34:00,
2013-05-14 20:39:00,43.1,41.8,30.03,NNW,332,0.0,0.0,95,0.05,,---,0.15,VWS V13.01,2013-05-15 00:39:00,
2013-05-14 20:44:00,43.0,41.7,30.03,NNW,332,0.0,0.0,95,0.05,,---,0.15,VWS V13.01,2013-05-15 00:44:00,
2013-05-14 20:49:00,43.1,41.8,30.02,NNW,331,0.0,0.0,95,0.05,,---,0.15,VWS V13.01,2013-05-15 00:49:00,
2013-05-14 20:54:00,43.1,41.8,30.01,NNW,332,0.0,1.0,95,0.05,,---,0.15,VWS V13.01,2013-05-15 00:54:00,
2013-05-14 20:59:00,43.2,41.9,30.00,NNW,331,0.0,1.0,95,0.05,,---,0.15,VWS V13.01,2013-05-15 00:59:00,
2013-05-14 21:04:00,43.2,41.9,30.01,North,355,0.0,4.0,95,0.00,,---,0.15,VWS V13.01,2013-05-15 01:04:00,
2013-05-14 21:09:00,43.2,41.9,30.01,North,355,0.0,4.0,95,0.00,,---,0.15,VWS V13.01,2013-05-15 01:09:00,
2013-05-14 21:14:00,43.1,41.8,30.01,North,355,0.0,4.0,95,0.00,,---,0.15,VWS V13.01,2013-05-15 01:14:00,
2013-05-14 21:19:00,43.1,41.8,30.00,North,355,0.0,4.0,95,0.00,,---,0.15,VWS V13.01,2013-05-15 01:19:00,
2013-05-14 21:24:00,43.1,41.8,30.00,NNE,28,0.0,5.0,95,0.00,,---,0.15,VWS V13.01,2013-05-15 01:24:00,
2013-05-14 21:30:00,43.2,41.9,30.00,NNE,28,0.0,5.0,95,0.00,,---,0.15,VWS V13.01,2013-05-15 01:30:00,
2013-05-14 21:35:00,43.2,41.9,30.00,NNE,28,0.0,2.0,95,0.00,,---,0.15,VWS V13.01,2013-05-15 01:35:00,
2013-05-14 21:40:00,43.1,41.8,29.99,NNE,32,0.0,2.0,95,0.00,,---,0.15,VWS V13.01,2013-05-15 01:40:00,
2013-05-14 21:45:00,43.1,41.8,29.99,NE,51,3.0,5.0,95,0.00,,---,0.15,VWS V13.01,2013-05-15 01:45:00,
2013-05-14 21:50:00,43.1,41.8,29.99,NE,52,0.0,5.0,95,0.00,,---,0.15,VWS V13.01,2013-05-15 01:50:00,
2013-05-14 21:55:00,43.0,41.7,29.99,NE,52,0.0,5.0,95,0.00,,---,0.15,VWS V13.01,2013-05-15 01:55:00,
2013-05-14 22:00:00,43.0,41.7,29.99,NE,53,0.0,5.0,95,0.00,,---,0.15,VWS V13.01,2013-05-15 02:00:00,
2013-05-14 22:05:00,43.2,41.9,29.99,NE,53,0.0,5.0,95,0.00,,---,0.15,VWS V13.01,2013-05-15 02:05:00,
2013-05-14 22:10:00,43.3,42.0,29.98,NE,52,0.0,5.0,95,0.00,,---,0.15,VWS V13.01,2013-05-15 02:10:00,
2013-05-14 22:15:00,43.2,41.9,29.98,NE,53,0.0,5.0,95,0.00,,---,0.15,VWS V13.01,2013-05-15 02:15:00,
2013-05-14 22:20:00,43.2,41.9,29.98,NE,53,2.0,5.0,95,0.00,,---,0.15,VWS V13.01,2013-05-15 02:20:00,
2013-05-14 22:25:00,43.3,42.0,29.98,NE,53,0.0,5.0,95,0.00,,---,0.15,VWS V13.01,2013-05-15 02:25:00,
2013-05-14 22:30:00,43.2,41.9,29.98,NE,54,0.0,1.0,95,0.00,,---,0.15,VWS V13.01,2013-05-15 02:30:00,
2013-05-14 22:35:00,43.1,41.8,29.97,NE,54,0.0,1.0,95,0.00,,---,0.15,VWS V13.01,2013-05-15 02:35:00,
2013-05-14 22:40:00,43.1,41.8,29.97,NE,54,0.0,1.0,95,0.00,,---,0.15,VWS V13.01,2013-05-15 02:40:00,
2013-05-14 22:45:00,43.1,41.8,29.97,NE,53,0.0,1.0,95,0.00,,---,0.15,VWS V13.01,2013-05-15 02:45:00,
2013-05-14 22:50:00,43.1,41.8,29.96,NE,54,0.0,1.0,95,0.00,,---,0.15,VWS V13.01,2013-05-15 02:50:00,
2013-05-14 22:56:00,43.1,41.8,29.96,NE,53,0.0,1.0,95,0.00,,---,0.15,VWS V13.01,2013-05-15 02:56:00,
2013-05-14 23:01:00,43.1,41.8,29.95,NE,54,0.0,0.0,95,0.00,,---,0.15,VWS V13.01,2013-05-15 03:01:00,
2013-05-14 23:06:00,43.1,41.8,29.95,NE,55,4.0,5.0,95,0.00,,---,0.15,VWS V13.01,2013-05-15 03:06:00,
2013-05-14 23:11:00,43.2,41.9,29.94,ENE,60,5.0,6.0,95,0.00,,---,0.15,VWS V13.01,2013-05-15 03:11:00,
2013-05-14 23:16:00,43.5,42.2,29.94,ENE,61,4.0,6.0,95,0.00,,---,0.15,VWS V13.01,2013-05-15 03:16:00,
2013-05-14 23:21:00,43.6,42.3,29.95,ENE,60,0.0,6.0,95,0.00,,---,0.15,VWS V13.01,2013-05-15 03:21:00,
2013-05-14 23:26:00,43.4,42.1,29.94,ENE,60,0.0,6.0,95,0.00,,---,0.15,VWS V13.01,2013-05-15 03:26:00,
2013-05-14 23:31:00,43.3,42.0,29.94,ENE,61,0.0,0.0,95,0.00,,---,0.15,VWS V13.01,2013-05-15 03:31:00,
2013-05-14 23:36:00,43.4,42.1,29.94,ENE,61,0.0,0.0,95,0.00,,---,0.15,VWS V13.01,2013-05-15 03:36:00,
2013-05-14 23:41:00,43.4,42.1,29.93,ENE,61,0.0,0.0,95,0.00,,---,0.15,VWS V13.01,2013-05-15 03:41:00,
2013-05-14 23:46:00,43.4,42.1,29.93,ENE,61,0.0,0.0,95,0.00,,---,0.15,VWS V13.01,2013-05-15 03:46:00,
2013-05-14 23:51:00,43.4,42.1,29.92,ENE,61,0.0,1.0,95,0.00,,---,0.15,VWS V13.01,2013-05-15 03:51:00,
2013-05-14 23:56:00,43.4,42.1,29.92,ENE,61,0.0,1.0,95,0.00,,---,0.15,VWS V13.01,2013-05-15 03:56:00,